createdAt,value
2018-02-18T00:00:26.790Z,1012.45
2018-02-18T00:01:07.345Z,1012.51
2018-02-18T00:01:47.854Z,1012.45
2018-02-18T00:02:28.405Z,1012.48
2018-02-18T00:03:08.962Z,1012.5
2018-02-18T00:03:49.529Z,1012.47
2018-02-18T00:04:30.111Z,1012.51
2018-02-18T00:05:10.672Z,1012.5
2018-02-18T00:05:51.239Z,1012.51
2018-02-18T00:06:31.831Z,1012.49
2018-02-18T00:07:12.385Z,1012.47
2018-02-18T00:07:52.954Z,1012.5
2018-02-18T00:08:33.508Z,1012.53
2018-02-18T00:09:14.067Z,1012.51
2018-02-18T00:09:54.649Z,1012.51
2018-02-18T00:10:35.204Z,1012.56
2018-02-18T00:11:15.777Z,1012.5
2018-02-18T00:11:56.313Z,1012.52
2018-02-18T00:12:36.857Z,1012.51
2018-02-18T00:13:17.401Z,1012.55
2018-02-18T00:13:57.951Z,1012.56
2018-02-18T00:14:38.513Z,1012.57
2018-02-18T00:15:19.069Z,1012.57
2018-02-18T00:15:59.633Z,1012.6
2018-02-18T00:16:40.198Z,1012.61
2018-02-18T00:17:20.748Z,1012.59
2018-02-18T00:18:01.335Z,1012.6
2018-02-18T00:18:41.900Z,1012.64
2018-02-18T00:19:22.457Z,1012.6
2018-02-18T00:20:03.038Z,1012.67
2018-02-18T00:20:43.599Z,1012.65
2018-02-18T00:21:24.149Z,1012.64
2018-02-18T00:22:04.687Z,1012.64
2018-02-18T00:22:45.239Z,1012.61
2018-02-18T00:23:25.795Z,1012.59
2018-02-18T00:24:06.357Z,1012.67
2018-02-18T00:24:46.921Z,1012.68
2018-02-18T00:25:27.469Z,1012.68
2018-02-18T00:26:08.065Z,1012.71
2018-02-18T00:26:48.604Z,1012.73
2018-02-18T00:27:29.164Z,1012.7
2018-02-18T00:28:09.720Z,1012.7
2018-02-18T00:28:50.292Z,1012.74
2018-02-18T00:29:30.859Z,1012.68
2018-02-18T00:30:11.425Z,1012.65
2018-02-18T00:30:51.981Z,1012.69
2018-02-18T00:31:32.536Z,1012.72
2018-02-18T00:32:13.115Z,1012.77
2018-02-18T00:32:53.675Z,1012.71
2018-02-18T00:33:34.235Z,1012.77
2018-02-18T00:34:14.799Z,1012.74
2018-02-18T00:34:55.372Z,1012.71
2018-02-18T00:35:35.948Z,1012.76
2018-02-18T00:36:16.497Z,1012.73
2018-02-18T00:36:57.053Z,1012.72
2018-02-18T00:37:37.617Z,1012.76
2018-02-18T00:38:18.191Z,1012.79
2018-02-18T00:38:58.759Z,1012.81
2018-02-18T00:39:39.320Z,1012.83
2018-02-18T00:40:19.883Z,1012.79
2018-02-18T00:41:00.454Z,1012.77
2018-02-18T00:41:41.011Z,1012.71
2018-02-18T00:42:21.564Z,1012.75
2018-02-18T00:43:02.124Z,1012.78
2018-02-18T00:43:42.682Z,1012.81
2018-02-18T00:44:23.258Z,1012.81
2018-02-18T00:45:03.804Z,1012.77
2018-02-18T00:45:44.370Z,1012.78
2018-02-18T00:46:24.933Z,1012.79
2018-02-18T00:47:05.490Z,1012.83
2018-02-18T00:47:46.051Z,1012.76
2018-02-18T00:48:26.621Z,1012.78
2018-02-18T00:49:07.162Z,1012.8
2018-02-18T00:49:47.723Z,1012.86
2018-02-18T00:50:28.278Z,1012.76
2018-02-18T00:51:08.842Z,1012.81
2018-02-18T00:51:49.396Z,1012.81
2018-02-18T00:52:29.963Z,1012.76
2018-02-18T00:53:10.505Z,1012.84
2018-02-18T00:53:51.064Z,1012.83
2018-02-18T00:54:31.609Z,1012.82
2018-02-18T00:55:12.175Z,1012.77
2018-02-18T00:55:52.751Z,1012.81
2018-02-18T00:56:33.306Z,1012.82
2018-02-18T00:57:13.879Z,1012.9
2018-02-18T00:57:54.404Z,1012.78
2018-02-18T00:58:34.960Z,1012.85
2018-02-18T00:59:15.518Z,1012.82
2018-02-18T00:59:56.072Z,1012.85
2018-02-18T01:00:36.623Z,1012.9
2018-02-18T01:01:17.230Z,1012.86
2018-02-18T01:01:57.780Z,1012.86
2018-02-18T01:02:38.335Z,1012.89
2018-02-18T01:03:18.887Z,1012.93
2018-02-18T01:04:00.213Z,1012.89
2018-02-18T01:04:40.759Z,1012.89
2018-02-18T01:05:21.350Z,1012.92
2018-02-18T01:06:01.923Z,1012.95
2018-02-18T01:06:42.487Z,1012.88
2018-02-18T01:07:23.046Z,1012.93
2018-02-18T01:08:04.437Z,1012.95
2018-02-18T01:08:44.803Z,1012.97
2018-02-18T01:09:25.349Z,1012.94
2018-02-18T01:10:06.025Z,1012.91
2018-02-18T01:10:46.729Z,1012.97
2018-02-18T01:11:27.931Z,1012.94
2018-02-18T01:12:08.932Z,1012.97
2018-02-18T01:12:48.961Z,1012.93
2018-02-18T01:13:29.525Z,1012.94
2018-02-18T01:14:10.118Z,1012.95
2018-02-18T01:14:50.683Z,1012.93
2018-02-18T01:15:31.237Z,1012.97
2018-02-18T01:16:11.845Z,1012.97
2018-02-18T01:16:52.379Z,1012.95
2018-02-18T01:17:32.955Z,1012.96
2018-02-18T01:18:13.522Z,1012.98
2018-02-18T01:18:54.077Z,1012.96
2018-02-18T01:19:34.641Z,1013.01
2018-02-18T01:20:15.240Z,1012.99
2018-02-18T01:20:55.798Z,1013.06
2018-02-18T01:21:36.383Z,1013.05
2018-02-18T01:22:18.434Z,1013.05
2018-02-18T01:23:00.024Z,1013.11
2018-02-18T01:23:40.603Z,1013.06
2018-02-18T01:24:21.153Z,1013.04
2018-02-18T01:25:01.736Z,1013.14
2018-02-18T01:25:42.283Z,1013.13
2018-02-18T01:26:23.517Z,1013.12
2018-02-18T01:27:05.107Z,1013.1
2018-02-18T01:27:45.660Z,1013.08
2018-02-18T01:28:26.225Z,1013.12
2018-02-18T01:29:06.959Z,1013.14
2018-02-18T01:29:47.505Z,1013.14
2018-02-18T01:30:28.081Z,1013.12
2018-02-18T01:31:08.654Z,1013.17
2018-02-18T01:31:49.198Z,1013.16
2018-02-18T01:32:29.746Z,1013.17
2018-02-18T01:33:10.317Z,1013.13
2018-02-18T01:33:51.668Z,1013.12
2018-02-18T01:34:32.223Z,1013.19
2018-02-18T01:35:12.832Z,1013.15
2018-02-18T01:35:53.388Z,1013.17
2018-02-18T01:36:33.975Z,1013.11
2018-02-18T01:37:14.541Z,1013.14
2018-02-18T01:37:55.082Z,1013.15
2018-02-18T01:38:36.262Z,1013.08
2018-02-18T01:39:16.840Z,1013.08
2018-02-18T01:39:57.407Z,1013.07
2018-02-18T01:40:38.940Z,1013.13
2018-02-18T01:41:19.836Z,1013.09
2018-02-18T01:42:00.386Z,1013.12
2018-02-18T01:42:40.934Z,1013.13
2018-02-18T01:43:21.488Z,1013.19
2018-02-18T01:44:02.735Z,1013.15
2018-02-18T01:44:43.276Z,1013.15
2018-02-18T01:45:23.829Z,1013.11
2018-02-18T01:46:04.388Z,1013.15
2018-02-18T01:46:44.954Z,1013.09
2018-02-18T01:47:27.445Z,1013.15
2018-02-18T01:48:06.045Z,1013.11
2018-02-18T01:48:46.611Z,1013.12
2018-02-18T01:49:27.159Z,1013.19
2018-02-18T01:50:07.714Z,1013.15
2018-02-18T01:50:48.263Z,1013.17
2018-02-18T01:51:28.812Z,1013.14
2018-02-18T01:52:09.375Z,1013.16
2018-02-18T01:52:49.863Z,1013.17
2018-02-18T01:53:30.433Z,1013.14
2018-02-18T01:54:10.955Z,1013.15
2018-02-18T01:54:51.491Z,1013.14
2018-02-18T01:55:31.997Z,1013.14
2018-02-18T01:56:12.508Z,1013.17
2018-02-18T01:56:53.034Z,1013.21
2018-02-18T01:57:34.446Z,1013.19
2018-02-18T01:58:14.196Z,1013.21
2018-02-18T01:58:55.292Z,1013.19
2018-02-18T01:59:35.861Z,1013.19
2018-02-18T02:00:17.944Z,1013.2
2018-02-18T02:00:57.927Z,1013.21
2018-02-18T02:01:39.438Z,1013.22
2018-02-18T02:02:19.637Z,1013.25
2018-02-18T02:03:00.182Z,1013.25
2018-02-18T02:03:40.739Z,1013.28
2018-02-18T02:04:21.284Z,1013.27
2018-02-18T02:05:01.837Z,1013.31
2018-02-18T02:05:42.381Z,1013.27
2018-02-18T02:06:22.927Z,1013.26
2018-02-18T02:07:03.407Z,1013.32
2018-02-18T02:07:45.742Z,1013.31
2018-02-18T02:08:26.291Z,1013.34
2018-02-18T02:09:06.850Z,1013.37
2018-02-18T02:09:47.393Z,1013.4
2018-02-18T02:10:27.980Z,1013.37
2018-02-18T02:11:08.469Z,1013.36
2018-02-18T02:11:49.003Z,1013.36
2018-02-18T02:12:29.520Z,1013.34
2018-02-18T02:13:10.098Z,1013.37
2018-02-18T02:13:50.579Z,1013.3
2018-02-18T02:14:31.107Z,1013.26
2018-02-18T02:15:11.670Z,1013.29
2018-02-18T02:15:52.202Z,1013.26
2018-02-18T02:16:33.953Z,1013.28
2018-02-18T02:17:13.874Z,1013.32
2018-02-18T02:17:54.423Z,1013.27
2018-02-18T02:18:34.962Z,1013.31
2018-02-18T02:19:15.482Z,1013.32
2018-02-18T02:19:56.052Z,1013.22
2018-02-18T02:20:36.539Z,1013.24
2018-02-18T02:21:17.120Z,1013.24
2018-02-18T02:21:57.642Z,1013.26
2018-02-18T02:22:38.191Z,1013.28
2018-02-18T02:23:18.775Z,1013.31
2018-02-18T02:23:59.271Z,1013.31
2018-02-18T02:24:40.957Z,1013.26
2018-02-18T02:25:21.012Z,1013.31
2018-02-18T02:26:01.456Z,1013.31
2018-02-18T02:26:42.760Z,1013.34
2018-02-18T02:27:23.202Z,1013.3
2018-02-18T02:28:03.761Z,1013.31
2018-02-18T02:28:44.296Z,1013.29
2018-02-18T02:29:24.807Z,1013.31
2018-02-18T02:30:05.336Z,1013.3
2018-02-18T02:30:45.918Z,1013.28
2018-02-18T02:31:26.405Z,1013.34
2018-02-18T02:32:06.919Z,1013.31
2018-02-18T02:32:47.464Z,1013.3
2018-02-18T02:33:28.037Z,1013.34
2018-02-18T02:34:08.610Z,1013.24
2018-02-18T02:34:49.145Z,1013.26
2018-02-18T02:35:29.674Z,1013.23
2018-02-18T02:36:10.214Z,1013.27
2018-02-18T02:36:50.740Z,1013.21
2018-02-18T02:37:31.256Z,1013.3
2018-02-18T02:38:11.774Z,1013.24
2018-02-18T02:38:52.353Z,1013.24
2018-02-18T02:39:35.413Z,1013.21
2018-02-18T02:40:15.913Z,1013.21
2018-02-18T02:40:56.470Z,1013.23
2018-02-18T02:41:37.018Z,1013.21
2018-02-18T02:42:17.577Z,1013.25
2018-02-18T02:42:58.077Z,1013.28
2018-02-18T02:43:38.630Z,1013.2
2018-02-18T02:44:19.224Z,1013.2
2018-02-18T02:44:59.785Z,1013.27
2018-02-18T02:45:40.353Z,1013.21
2018-02-18T02:46:20.920Z,1013.27
2018-02-18T02:47:01.468Z,1013.2
2018-02-18T02:47:42.034Z,1013.2
2018-02-18T02:48:22.598Z,1013.23
2018-02-18T02:49:03.950Z,1013.24
2018-02-18T02:49:43.692Z,1013.25
2018-02-18T02:50:24.256Z,1013.22
2018-02-18T02:51:04.830Z,1013.2
2018-02-18T02:51:45.391Z,1013.18
2018-02-18T02:52:25.951Z,1013.21
2018-02-18T02:53:06.497Z,1013.22
2018-02-18T02:53:47.056Z,1013.2
2018-02-18T02:54:27.619Z,1013.22
2018-02-18T02:55:08.183Z,1013.32
2018-02-18T02:55:49.237Z,1013.28
2018-02-18T02:56:29.831Z,1013.23
2018-02-18T02:57:10.395Z,1013.24
2018-02-18T02:57:50.961Z,1013.23
2018-02-18T02:58:31.524Z,1013.26
2018-02-18T02:59:12.198Z,1013.31
2018-02-18T02:59:52.639Z,1013.21
2018-02-18T03:00:33.202Z,1013.22
2018-02-18T03:01:13.757Z,1013.23
2018-02-18T03:01:54.327Z,1013.31
2018-02-18T03:02:34.891Z,1013.21
2018-02-18T03:03:15.459Z,1013.2
2018-02-18T03:03:56.026Z,1013.19
2018-02-18T03:04:36.573Z,1013.27
2018-02-18T03:05:17.130Z,1013.19
2018-02-18T03:05:57.698Z,1013.22
2018-02-18T03:06:39.120Z,1013.25
2018-02-18T03:07:19.680Z,1013.24
2018-02-18T03:08:00.311Z,1013.23
2018-02-18T03:08:40.824Z,1013.25
2018-02-18T03:09:21.392Z,1013.24
2018-02-18T03:10:01.955Z,1013.26
2018-02-18T03:10:42.507Z,1013.32
2018-02-18T03:11:23.066Z,1013.27
2018-02-18T03:12:03.616Z,1013.29
2018-02-18T03:12:44.169Z,1013.28
2018-02-18T03:13:24.726Z,1013.3
2018-02-18T03:14:05.298Z,1013.25
2018-02-18T03:14:45.852Z,1013.31
2018-02-18T03:15:26.431Z,1013.3
2018-02-18T03:16:06.984Z,1013.28
2018-02-18T03:16:47.550Z,1013.19
2018-02-18T03:17:28.126Z,1013.25
2018-02-18T03:18:08.674Z,1013.18
2018-02-18T03:18:49.221Z,1013.22
2018-02-18T03:19:29.778Z,1013.16
2018-02-18T03:20:10.349Z,1013.18
2018-02-18T03:20:50.910Z,1013.18
2018-02-18T03:21:31.479Z,1013.15
2018-02-18T03:22:12.048Z,1013.13
2018-02-18T03:22:52.599Z,1013.14
2018-02-18T03:23:33.183Z,1013.15
2018-02-18T03:24:13.745Z,1013.15
2018-02-18T03:24:54.295Z,1013.15
2018-02-18T03:25:34.876Z,1013.2
2018-02-18T03:26:15.439Z,1013.16
2018-02-18T03:26:55.978Z,1013.18
2018-02-18T03:27:36.544Z,1013.19
2018-02-18T03:28:17.107Z,1013.15
2018-02-18T03:29:00.551Z,1013.18
2018-02-18T03:29:42.105Z,1013.21
2018-02-18T03:30:22.664Z,1013.19
2018-02-18T03:31:04.051Z,1013.22
2018-02-18T03:31:44.603Z,1013.23
2018-02-18T03:32:25.159Z,1013.23
2018-02-18T03:33:05.706Z,1013.27
2018-02-18T03:33:46.274Z,1013.26
2018-02-18T03:34:26.834Z,1013.31
2018-02-18T03:35:07.391Z,1013.26
2018-02-18T03:35:47.953Z,1013.3
2018-02-18T03:36:28.527Z,1013.31
2018-02-18T03:37:09.081Z,1013.35
2018-02-18T03:37:49.655Z,1013.33
2018-02-18T03:38:30.193Z,1013.31
2018-02-18T03:39:10.767Z,1013.33
2018-02-18T03:39:51.327Z,1013.32
2018-02-18T03:40:31.908Z,1013.32
2018-02-18T03:41:12.485Z,1013.35
2018-02-18T03:41:53.042Z,1013.34
2018-02-18T03:42:33.603Z,1013.32
2018-02-18T03:43:14.160Z,1013.38
2018-02-18T03:43:54.726Z,1013.34
2018-02-18T03:44:35.288Z,1013.33
2018-02-18T03:45:15.857Z,1013.36
2018-02-18T03:45:56.418Z,1013.37
2018-02-18T03:46:36.956Z,1013.35
2018-02-18T03:47:17.512Z,1013.33
2018-02-18T03:47:58.053Z,1013.35
2018-02-18T03:48:38.613Z,1013.33
2018-02-18T03:49:19.170Z,1013.32
2018-02-18T03:49:59.734Z,1013.34
2018-02-18T03:50:40.312Z,1013.38
2018-02-18T03:51:20.831Z,1013.38
2018-02-18T03:52:01.448Z,1013.38
2018-02-18T03:52:42.006Z,1013.34
2018-02-18T03:53:22.575Z,1013.37
2018-02-18T03:54:03.123Z,1013.34
2018-02-18T03:54:43.687Z,1013.39
2018-02-18T03:55:24.252Z,1013.36
2018-02-18T03:56:04.806Z,1013.37
2018-02-18T03:56:45.344Z,1013.36
2018-02-18T03:57:25.912Z,1013.4
2018-02-18T03:58:06.474Z,1013.4
2018-02-18T03:58:47.026Z,1013.41
2018-02-18T03:59:27.587Z,1013.38
2018-02-18T04:00:08.142Z,1013.4
2018-02-18T04:00:48.699Z,1013.39
2018-02-18T04:01:29.263Z,1013.41
2018-02-18T04:02:09.813Z,1013.39
2018-02-18T04:02:50.981Z,1013.41
2018-02-18T04:03:46.306Z,1013.43
2018-02-18T04:04:26.857Z,1013.4
2018-02-18T04:05:07.424Z,1013.42
2018-02-18T04:05:47.954Z,1013.43
2018-02-18T04:06:28.491Z,1013.44
2018-02-18T04:07:09.068Z,1013.44
2018-02-18T04:07:49.625Z,1013.43
2018-02-18T04:08:30.176Z,1013.43
2018-02-18T04:09:10.729Z,1013.43
2018-02-18T04:09:51.293Z,1013.45
2018-02-18T04:10:31.858Z,1013.43
2018-02-18T04:11:12.402Z,1013.46
2018-02-18T04:11:52.972Z,1013.47
2018-02-18T04:12:33.512Z,1013.44
2018-02-18T04:13:14.054Z,1013.45
2018-02-18T04:13:54.604Z,1013.44
2018-02-18T04:14:35.154Z,1013.45
2018-02-18T04:15:15.710Z,1013.47
2018-02-18T04:15:56.308Z,1013.52
2018-02-18T04:16:36.858Z,1013.48
2018-02-18T04:17:17.423Z,1013.48
2018-02-18T04:18:00.685Z,1013.5
2018-02-18T04:18:42.193Z,1013.53
2018-02-18T04:19:23.663Z,1013.53
2018-02-18T04:20:13.909Z,1013.48
2018-02-18T04:20:54.494Z,1013.61
2018-02-18T04:21:42.856Z,1013.56
2018-02-18T04:22:23.437Z,1013.54
2018-02-18T04:23:05.475Z,1013.57
2018-02-18T04:23:44.553Z,1013.63
2018-02-18T04:24:25.123Z,1013.6
2018-02-18T04:25:05.692Z,1013.64
2018-02-18T04:25:46.250Z,1013.6
2018-02-18T04:26:26.807Z,1013.59
2018-02-18T04:27:07.362Z,1013.61
2018-02-18T04:27:47.929Z,1013.59
2018-02-18T04:28:28.481Z,1013.58
2018-02-18T04:29:09.029Z,1013.59
2018-02-18T04:29:49.583Z,1013.58
2018-02-18T04:30:30.140Z,1013.57
2018-02-18T04:31:10.698Z,1013.61
2018-02-18T04:31:51.261Z,1013.6
2018-02-18T04:32:31.832Z,1013.54
2018-02-18T04:33:12.385Z,1013.56
2018-02-18T04:33:52.944Z,1013.52
2018-02-18T04:34:33.485Z,1013.53
2018-02-18T04:35:14.070Z,1013.56
2018-02-18T04:35:54.646Z,1013.53
2018-02-18T04:36:35.209Z,1013.55
2018-02-18T04:37:15.773Z,1013.59
2018-02-18T04:37:56.329Z,1013.6
2018-02-18T04:38:36.893Z,1013.62
2018-02-18T04:39:17.447Z,1013.58
2018-02-18T04:39:58.011Z,1013.6
2018-02-18T04:40:38.575Z,1013.6
2018-02-18T04:41:19.133Z,1013.65
2018-02-18T04:41:59.697Z,1013.67
2018-02-18T04:42:40.260Z,1013.67
2018-02-18T04:43:20.805Z,1013.66
2018-02-18T04:44:01.365Z,1013.64
2018-02-18T04:44:41.918Z,1013.62
2018-02-18T04:45:22.498Z,1013.62
2018-02-18T04:46:03.056Z,1013.64
2018-02-18T04:46:43.626Z,1013.58
2018-02-18T04:47:24.201Z,1013.59
2018-02-18T04:48:04.760Z,1013.55
2018-02-18T04:48:45.307Z,1013.59
2018-02-18T04:49:25.858Z,1013.58
2018-02-18T04:50:06.974Z,1013.53
2018-02-18T04:50:53.973Z,1013.54
2018-02-18T04:51:33.843Z,1013.53
2018-02-18T04:52:19.476Z,1013.51
2018-02-18T04:53:00.161Z,1013.56
2018-02-18T04:53:40.678Z,1013.54
2018-02-18T04:54:21.226Z,1013.56
2018-02-18T04:55:01.789Z,1013.49
2018-02-18T04:55:42.336Z,1013.53
2018-02-18T04:56:22.875Z,1013.57
2018-02-18T04:57:03.429Z,1013.53
2018-02-18T04:57:44.009Z,1013.51
2018-02-18T04:58:24.565Z,1013.52
2018-02-18T04:59:05.154Z,1013.51
2018-02-18T04:59:45.708Z,1013.55
2018-02-18T05:00:26.284Z,1013.55
2018-02-18T05:01:06.851Z,1013.54
2018-02-18T05:01:47.405Z,1013.56
2018-02-18T05:02:27.951Z,1013.54
2018-02-18T05:03:08.514Z,1013.53
2018-02-18T05:03:49.076Z,1013.55
2018-02-18T05:04:29.610Z,1013.56
2018-02-18T05:05:10.164Z,1013.58
2018-02-18T05:05:50.734Z,1013.53
2018-02-18T05:06:31.288Z,1013.61
2018-02-18T05:07:11.842Z,1013.61
2018-02-18T05:07:53.004Z,1013.68
2018-02-18T05:08:35.381Z,1013.65
2018-02-18T05:09:16.478Z,1013.64
2018-02-18T05:09:59.309Z,1013.65
2018-02-18T05:10:39.869Z,1013.68
2018-02-18T05:11:22.491Z,1013.64
2018-02-18T05:12:01.673Z,1013.65
2018-02-18T05:12:42.797Z,1013.61
2018-02-18T05:13:23.357Z,1013.59
2018-02-18T05:14:03.894Z,1013.59
2018-02-18T05:14:44.472Z,1013.56
2018-02-18T05:15:25.029Z,1013.59
2018-02-18T05:16:05.606Z,1013.62
2018-02-18T05:16:46.171Z,1013.59
2018-02-18T05:17:26.742Z,1013.59
2018-02-18T05:18:07.305Z,1013.58
2018-02-18T05:18:47.858Z,1013.62
2018-02-18T05:19:28.441Z,1013.65
2018-02-18T05:20:09.008Z,1013.64
2018-02-18T05:20:49.567Z,1013.63
2018-02-18T05:21:30.146Z,1013.61
2018-02-18T05:22:10.712Z,1013.66
2018-02-18T05:22:51.266Z,1013.62
2018-02-18T05:23:31.835Z,1013.62
2018-02-18T05:24:12.392Z,1013.61
2018-02-18T05:24:52.947Z,1013.63
2018-02-18T05:25:33.517Z,1013.61
2018-02-18T05:26:14.084Z,1013.65
2018-02-18T05:26:54.643Z,1013.66
2018-02-18T05:27:35.206Z,1013.71
2018-02-18T05:28:15.765Z,1013.69
2018-02-18T05:28:56.319Z,1013.69
2018-02-18T05:29:36.906Z,1013.75
2018-02-18T05:30:17.472Z,1013.78
2018-02-18T05:30:58.029Z,1013.74
2018-02-18T05:31:38.583Z,1013.76
2018-02-18T05:32:19.155Z,1013.78
2018-02-18T05:32:59.721Z,1013.85
2018-02-18T05:33:40.281Z,1013.83
2018-02-18T05:34:20.839Z,1013.83
2018-02-18T05:35:01.398Z,1013.84
2018-02-18T05:35:41.944Z,1013.85
2018-02-18T05:36:22.508Z,1013.96
2018-02-18T05:37:03.055Z,1013.96
2018-02-18T05:37:43.612Z,1013.93
2018-02-18T05:38:24.165Z,1013.92
2018-02-18T05:39:04.733Z,1013.93
2018-02-18T05:39:45.282Z,1013.92
2018-02-18T05:40:25.831Z,1013.93
2018-02-18T05:41:06.385Z,1013.92
2018-02-18T05:41:46.974Z,1013.98
2018-02-18T05:42:27.541Z,1013.94
2018-02-18T05:43:08.103Z,1013.96
2018-02-18T05:43:48.668Z,1013.95
2018-02-18T05:44:29.235Z,1013.98
2018-02-18T05:45:09.795Z,1013.96
2018-02-18T05:45:50.343Z,1013.97
2018-02-18T05:46:30.900Z,1013.98
2018-02-18T05:47:11.465Z,1013.95
2018-02-18T05:47:52.019Z,1013.93
2018-02-18T05:48:32.589Z,1013.99
2018-02-18T05:49:13.141Z,1014.02
2018-02-18T05:49:53.724Z,1014.02
2018-02-18T05:50:34.281Z,1013.97
2018-02-18T05:51:14.842Z,1013.99
2018-02-18T05:51:55.409Z,1014.01
2018-02-18T05:52:35.964Z,1013.98
2018-02-18T05:53:16.510Z,1014
2018-02-18T05:53:57.057Z,1014.05
2018-02-18T05:54:37.627Z,1014.05
2018-02-18T05:55:18.179Z,1014
2018-02-18T05:55:58.728Z,1014.07
2018-02-18T05:56:39.298Z,1014.04
2018-02-18T05:57:19.848Z,1014.02
2018-02-18T05:58:00.399Z,1014.01
2018-02-18T05:58:40.971Z,1014.07
2018-02-18T05:59:21.526Z,1014.11
2018-02-18T06:00:02.095Z,1014.11
2018-02-18T06:00:42.638Z,1014.08
2018-02-18T06:01:23.946Z,1014.09
2018-02-18T06:02:04.511Z,1014.07
2018-02-18T06:02:45.085Z,1014.09
2018-02-18T06:03:25.642Z,1014.11
2018-02-18T06:04:06.190Z,1014.11
2018-02-18T06:04:46.744Z,1014.09
2018-02-18T06:05:27.297Z,1014.11
2018-02-18T06:06:07.865Z,1014.18
2018-02-18T06:06:48.443Z,1014.17
2018-02-18T06:07:28.997Z,1014.17
2018-02-18T06:08:09.552Z,1014.23
2018-02-18T06:08:50.114Z,1014.2
2018-02-18T06:09:30.663Z,1014.23
2018-02-18T06:10:11.227Z,1014.27
2018-02-18T06:10:51.769Z,1014.25
2018-02-18T06:11:32.328Z,1014.23
2018-02-18T06:12:12.880Z,1014.21
2018-02-18T06:12:53.451Z,1014.17
2018-02-18T06:13:34.013Z,1014.19
2018-02-18T06:14:14.567Z,1014.22
2018-02-18T06:14:55.147Z,1014.16
2018-02-18T06:15:35.715Z,1014.16
2018-02-18T06:16:16.259Z,1014.16
2018-02-18T06:16:56.817Z,1014.19
2018-02-18T06:17:37.358Z,1014.21
2018-02-18T06:18:17.919Z,1014.14
2018-02-18T06:18:58.464Z,1014.14
2018-02-18T06:19:39.061Z,1014.17
2018-02-18T06:20:19.602Z,1014.18
2018-02-18T06:21:00.150Z,1014.17
2018-02-18T06:21:40.676Z,1014.19
2018-02-18T06:22:21.236Z,1014.24
2018-02-18T06:23:01.792Z,1014.25
2018-02-18T06:23:42.340Z,1014.24
2018-02-18T06:24:22.910Z,1014.24
2018-02-18T06:25:03.465Z,1014.22
2018-02-18T06:25:44.028Z,1014.27
2018-02-18T06:26:24.586Z,1014.25
2018-02-18T06:27:05.143Z,1014.29
2018-02-18T06:27:45.709Z,1014.26
2018-02-18T06:28:26.268Z,1014.26
2018-02-18T06:29:06.832Z,1014.26
2018-02-18T06:29:47.377Z,1014.25
2018-02-18T06:30:27.927Z,1014.24
2018-02-18T06:31:08.486Z,1014.24
2018-02-18T06:31:49.043Z,1014.23
2018-02-18T06:32:29.625Z,1014.26
2018-02-18T06:33:10.178Z,1014.27
2018-02-18T06:33:50.742Z,1014.35
2018-02-18T06:34:31.304Z,1014.35
2018-02-18T06:35:11.864Z,1014.24
2018-02-18T06:35:52.406Z,1014.31
2018-02-18T06:36:32.967Z,1014.24
2018-02-18T06:37:13.518Z,1014.31
2018-02-18T06:37:54.087Z,1014.28
2018-02-18T06:38:34.648Z,1014.29
2018-02-18T06:39:15.201Z,1014.29
2018-02-18T06:39:55.753Z,1014.26
2018-02-18T06:40:36.302Z,1014.25
2018-02-18T06:41:16.855Z,1014.25
2018-02-18T06:41:57.414Z,1014.23
2018-02-18T06:42:37.976Z,1014.21
2018-02-18T06:43:18.532Z,1014.26
2018-02-18T06:43:59.082Z,1014.23
2018-02-18T06:44:39.649Z,1014.21
2018-02-18T06:45:20.236Z,1014.21
2018-02-18T06:46:00.797Z,1014.17
2018-02-18T06:46:41.341Z,1014.19
2018-02-18T06:47:21.913Z,1014.23
2018-02-18T06:48:02.478Z,1014.17
2018-02-18T06:48:43.036Z,1014.18
2018-02-18T06:49:23.593Z,1014.17
2018-02-18T06:50:04.181Z,1014.21
2018-02-18T06:50:44.721Z,1014.17
2018-02-18T06:51:25.276Z,1014.19
2018-02-18T06:52:05.847Z,1014.22
2018-02-18T06:52:46.405Z,1014.19
2018-02-18T06:53:26.958Z,1014.23
2018-02-18T06:54:07.504Z,1014.17
2018-02-18T06:54:48.064Z,1014.2
2018-02-18T06:55:28.624Z,1014.22
2018-02-18T06:56:09.178Z,1014.21
2018-02-18T06:56:49.741Z,1014.22
2018-02-18T06:57:30.302Z,1014.25
2018-02-18T06:58:10.868Z,1014.21
2018-02-18T06:58:51.439Z,1014.23
2018-02-18T06:59:32.000Z,1014.23
2018-02-18T07:00:12.564Z,1014.23
2018-02-18T07:00:53.127Z,1014.29
2018-02-18T07:01:33.693Z,1014.24
2018-02-18T07:02:14.260Z,1014.2
2018-02-18T07:02:54.830Z,1014.24
2018-02-18T07:03:35.390Z,1014.25
2018-02-18T07:04:15.952Z,1014.26
2018-02-18T07:04:56.513Z,1014.31
2018-02-18T07:05:37.051Z,1014.32
2018-02-18T07:06:17.620Z,1014.32
2018-02-18T07:06:58.176Z,1014.33
2018-02-18T07:07:38.736Z,1014.33
2018-02-18T07:08:19.280Z,1014.33
2018-02-18T07:08:59.845Z,1014.32
2018-02-18T07:09:40.389Z,1014.32
2018-02-18T07:10:20.956Z,1014.3
2018-02-18T07:11:01.514Z,1014.33
2018-02-18T07:11:42.091Z,1014.3
2018-02-18T07:12:22.643Z,1014.33
2018-02-18T07:13:03.204Z,1014.29
2018-02-18T07:13:43.774Z,1014.35
2018-02-18T07:14:24.314Z,1014.32
2018-02-18T07:15:04.880Z,1014.34
2018-02-18T07:15:45.481Z,1014.28
2018-02-18T07:16:26.005Z,1014.31
2018-02-18T07:17:06.574Z,1014.33
2018-02-18T07:17:47.131Z,1014.35
2018-02-18T07:18:27.683Z,1014.35
2018-02-18T07:19:08.235Z,1014.38
2018-02-18T07:19:48.795Z,1014.33
2018-02-18T07:20:29.353Z,1014.33
2018-02-18T07:21:09.929Z,1014.28
2018-02-18T07:21:50.494Z,1014.28
2018-02-18T07:22:31.038Z,1014.27
2018-02-18T07:23:11.591Z,1014.27
2018-02-18T07:23:52.124Z,1014.23
2018-02-18T07:24:32.692Z,1014.27
2018-02-18T07:25:13.249Z,1014.28
2018-02-18T07:25:53.790Z,1014.28
2018-02-18T07:26:34.336Z,1014.29
2018-02-18T07:27:14.889Z,1014.32
2018-02-18T07:27:55.429Z,1014.32
2018-02-18T07:28:35.998Z,1014.29
2018-02-18T07:29:16.550Z,1014.31
2018-02-18T07:29:57.160Z,1014.31
2018-02-18T07:30:37.768Z,1014.33
2018-02-18T07:31:18.260Z,1014.28
2018-02-18T07:31:58.826Z,1014.37
2018-02-18T07:32:39.368Z,1014.32
2018-02-18T07:33:19.920Z,1014.29
2018-02-18T07:34:00.487Z,1014.28
2018-02-18T07:34:41.046Z,1014.29
2018-02-18T07:35:21.600Z,1014.31
2018-02-18T07:36:02.166Z,1014.32
2018-02-18T07:36:42.727Z,1014.37
2018-02-18T07:37:23.328Z,1014.33
2018-02-18T07:38:03.836Z,1014.35
2018-02-18T07:38:44.404Z,1014.32
2018-02-18T07:39:24.961Z,1014.33
2018-02-18T07:40:05.524Z,1014.33
2018-02-18T07:40:46.085Z,1014.32
2018-02-18T07:41:26.652Z,1014.32
2018-02-18T07:42:07.238Z,1014.35
2018-02-18T07:42:47.787Z,1014.36
2018-02-18T07:43:28.351Z,1014.34
2018-02-18T07:44:09.063Z,1014.33
2018-02-18T07:44:49.626Z,1014.36
2018-02-18T07:45:30.175Z,1014.35
2018-02-18T07:46:10.730Z,1014.39
2018-02-18T07:46:51.289Z,1014.37
2018-02-18T07:47:31.864Z,1014.39
2018-02-18T07:48:12.410Z,1014.35
2018-02-18T07:48:52.967Z,1014.37
2018-02-18T07:49:33.516Z,1014.37
2018-02-18T07:50:14.076Z,1014.43
2018-02-18T07:50:54.636Z,1014.38
2018-02-18T07:51:35.196Z,1014.39
2018-02-18T07:52:15.788Z,1014.44
2018-02-18T07:52:56.362Z,1014.41
2018-02-18T07:53:36.909Z,1014.42
2018-02-18T07:54:17.462Z,1014.4
2018-02-18T07:54:58.173Z,1014.48
2018-02-18T07:55:38.569Z,1014.43
2018-02-18T07:56:19.204Z,1014.47
2018-02-18T07:56:59.763Z,1014.46
2018-02-18T07:57:40.311Z,1014.41
2018-02-18T07:58:20.879Z,1014.43
2018-02-18T07:59:01.396Z,1014.39
2018-02-18T07:59:41.955Z,1014.44
2018-02-18T08:00:22.523Z,1014.42
2018-02-18T08:01:03.080Z,1014.45
2018-02-18T08:01:43.637Z,1014.42
2018-02-18T08:02:24.193Z,1014.44
2018-02-18T08:03:04.764Z,1014.46
2018-02-18T08:03:45.304Z,1014.36
2018-02-18T08:04:25.892Z,1014.38
2018-02-18T08:05:06.508Z,1014.33
2018-02-18T08:05:47.140Z,1014.31
2018-02-18T08:06:27.742Z,1014.34
2018-02-18T08:07:08.288Z,1014.36
2018-02-18T08:07:48.879Z,1014.34
2018-02-18T08:08:29.454Z,1014.28
2018-02-18T08:09:10.006Z,1014.33
2018-02-18T08:09:50.553Z,1014.28
2018-02-18T08:10:31.207Z,1014.28
2018-02-18T08:11:11.857Z,1014.28
2018-02-18T08:11:52.504Z,1014.3
2018-02-18T08:12:33.041Z,1014.29
2018-02-18T08:13:13.762Z,1014.26